Time;durP1;ratioP1;P1;durP2;ratioP2;P2;SDS_P1;SDS_P2;PMS_P1;PMS_P2;Temp;Humidity;BMP_temperature;BMP_pressure;BME280_temperature;BME280_humidity;BME280_pressure;Samples;Min_cycle;Max_cycle;Signal;HPM_P1;HPM_P2
2022/03/22 00:01:58;;;;;;;37.50;26.42;;;;;;;;;;5051614;28;20215;-61
2022/03/22 00:04:23;;;;;;;39.90;26.35;;;;;;;;;;5054369;28;20210;-61
2022/03/22 00:06:49;;;;;;;39.33;27.05;;;;;;;;;;5054605;28;20231;-61
2022/03/22 00:09:14;;;;;;;37.17;24.67;;;;;;;;;;5054824;28;20298;-61
2022/03/22 00:11:39;;;;;;;41.42;25.83;;;;;;;;;;5055230;28;20561;-61
2022/03/22 00:14:08;;;;;;;41.72;26.48;;;;;;;;;;5054320;28;20272;-61
2022/03/22 00:16:34;;;;;;;38.22;26.30;;;;;;;;;;5055151;28;20218;-61
2022/03/22 00:18:59;;;;;;;42.53;27.33;;;;;;;;;;5037102;28;20589;-61
2022/03/22 00:21:25;;;;;;;36.40;25.17;;;;;;;;;;5053694;28;20215;-61
2022/03/22 00:23:50;;;;;;;39.78;26.13;;;;;;;;;;5055115;28;20214;-61
2022/03/22 00:26:15;;;;;;;38.33;26.45;;;;;;;;;;5053492;28;20259;-61
2022/03/22 00:28:40;;;;;;;39.78;26.13;;;;;;;;;;5066611;28;20280;-61
2022/03/22 00:31:07;;;;;;;35.78;25.27;;;;;;;;;;5065128;28;20230;-61
2022/03/22 00:33:32;;;;;;;35.85;25.85;;;;;;;;;;5054036;28;20210;-61
2022/03/22 00:35:58;;;;;;;39.17;25.38;;;;;;;;;;5067065;28;20211;-61
2022/03/22 00:38:24;;;;;;;38.40;26.33;;;;;;;;;;5073230;28;20285;-61
2022/03/22 00:40:49;;;;;;;41.45;26.33;;;;;;;;;;5073853;28;20297;-61
2022/03/22 00:43:14;;;;;;;39.80;25.45;;;;;;;;;;5073930;28;20207;-61
2022/03/22 00:45:39;;;;;;;37.40;26.52;;;;;;;;;;5061815;28;20215;-61
2022/03/22 00:48:05;;;;;;;39.55;26.23;;;;;;;;;;5053295;28;20234;-61
2022/03/22 00:50:33;;;;;;;37.33;24.75;;;;;;;;;;5054165;28;20218;-61
2022/03/22 00:52:59;;;;;;;38.28;25.77;;;;;;;;;;5054427;28;20294;-61
2022/03/22 00:55:24;;;;;;;38.10;25.50;;;;;;;;;;5035134;28;20318;-61
2022/03/22 00:57:50;;;;;;;41.10;26.38;;;;;;;;;;5054180;28;20720;-61
2022/03/22 01:00:15;;;;;;;41.92;26.90;;;;;;;;;;5051043;28;20214;-61
2022/03/22 01:02:41;;;;;;;39.25;27.35;;;;;;;;;;5055746;28;20211;-61
2022/03/22 01:05:07;;;;;;;40.17;26.05;;;;;;;;;;5073573;28;20580;-61
2022/03/22 01:07:34;;;;;;;39.70;26.63;;;;;;;;;;5074201;28;20230;-61
2022/03/22 01:10:01;;;;;;;39.95;26.77;;;;;;;;;;5055473;28;20206;-61
2022/03/22 01:12:26;;;;;;;39.40;26.75;;;;;;;;;;5073633;28;20244;-61
2022/03/22 01:14:52;;;;;;;38.58;26.48;;;;;;;;;;5073656;28;20214;-61
2022/03/22 01:17:17;;;;;;;37.97;26.05;;;;;;;;;;5072745;28;20219;-61
2022/03/22 01:19:43;;;;;;;38.70;25.27;;;;;;;;;;5073736;28;20206;-61
2022/03/22 01:22:08;;;;;;;36.80;26.13;;;;;;;;;;5073315;28;20229;-61
2022/03/22 01:24:33;;;;;;;36.22;26.02;;;;;;;;;;5073077;28;20221;-61
2022/03/22 01:26:58;;;;;;;37.33;25.33;;;;;;;;;;5073697;28;20597;-61
2022/03/22 01:29:24;;;;;;;37.08;25.45;;;;;;;;;;5072191;28;20545;-61
2022/03/22 01:31:50;;;;;;;38.47;25.42;;;;;;;;;;5073760;28;20218;-61
2022/03/22 01:34:15;;;;;;;39.28;25.65;;;;;;;;;;5073106;28;20206;-61
2022/03/22 01:36:41;;;;;;;35.88;24.45;;;;;;;;;;5072863;28;20628;-61
2022/03/22 01:39:06;;;;;;;39.85;26.25;;;;;;;;;;5058114;28;20238;-61
2022/03/22 01:41:31;;;;;;;36.63;24.77;;;;;;;;;;5053625;28;20215;-61
2022/03/22 01:43:57;;;;;;;39.70;25.30;;;;;;;;;;5052670;28;20238;-61
2022/03/22 01:46:28;;;;;;;37.22;25.33;;;;;;;;;;5071263;28;20586;-61
2022/03/22 01:48:53;;;;;;;37.78;25.15;;;;;;;;;;5073250;28;20210;-61
2022/03/22 01:51:21;;;;;;;36.22;25.13;;;;;;;;;;5071868;28;20218;-61
2022/03/22 01:53:46;;;;;;;36.45;24.58;;;;;;;;;;5073161;28;20428;-61
2022/03/22 01:56:12;;;;;;;35.20;24.45;;;;;;;;;;5072598;28;20293;-61
2022/03/22 01:58:38;;;;;;;41.85;25.88;;;;;;;;;;5070297;28;20218;-61
2022/03/22 02:06:32;;;;;;;35.53;24.52;;;;;;;;;;5051802;28;20226;-61
2022/03/22 02:08:57;;;;;;;35.88;25.17;;;;;;;;;;5052804;28;20254;-61
2022/03/22 02:11:22;;;;;;;36.15;25.48;;;;;;;;;;5052567;28;20765;-61
2022/03/22 02:13:48;;;;;;;41.50;25.83;;;;;;;;;;5052114;28;20214;-61
2022/03/22 02:16:13;;;;;;;35.70;24.83;;;;;;;;;;5052411;28;20242;-61
2022/03/22 02:18:40;;;;;;;36.97;24.88;;;;;;;;;;5052120;28;20260;-61
2022/03/22 02:21:05;;;;;;;37.42;23.70;;;;;;;;;;5052189;28;20290;-61
2022/03/22 02:23:46;;;;;;;34.15;24.08;;;;;;;;;;5052552;28;20349;-61
2022/03/22 02:26:11;;;;;;;37.25;23.77;;;;;;;;;;5050716;28;20349;-61
2022/03/22 02:28:36;;;;;;;37.40;24.60;;;;;;;;;;5052559;28;20580;-61
2022/03/22 02:31:02;;;;;;;36.67;23.63;;;;;;;;;;5052163;28;20341;-61
2022/03/22 02:33:27;;;;;;;38.15;23.60;;;;;;;;;;5051963;28;20297;-61
2022/03/22 02:35:52;;;;;;;31.75;23.23;;;;;;;;;;5034539;28;20242;-61
2022/03/22 02:38:18;;;;;;;33.33;23.30;;;;;;;;;;5058886;28;20614;-61
2022/03/22 02:40:44;;;;;;;35.05;24.15;;;;;;;;;;5071390;28;20253;-61
2022/03/22 02:43:10;;;;;;;34.88;23.70;;;;;;;;;;5072022;28;20217;-61
2022/03/22 02:45:36;;;;;;;37.67;23.73;;;;;;;;;;5060118;28;20215;-61
2022/03/22 02:48:01;;;;;;;34.45;22.85;;;;;;;;;;5051206;28;20215;-61
2022/03/22 02:50:28;;;;;;;34.50;23.08;;;;;;;;;;5052174;28;20223;-61
2022/03/22 02:52:53;;;;;;;31.88;21.13;;;;;;;;;;5052163;28;20247;-61
2022/03/22 02:55:20;;;;;;;33.58;23.45;;;;;;;;;;5029816;28;20654;-61
2022/03/22 02:57:46;;;;;;;29.50;21.67;;;;;;;;;;5032650;28;20208;-61
2022/03/22 03:00:11;;;;;;;33.38;23.20;;;;;;;;;;5046299;28;20317;-61
2022/03/22 03:02:42;;;;;;;33.03;21.33;;;;;;;;;;5051526;28;20617;-61
2022/03/22 03:05:08;;;;;;;35.25;23.25;;;;;;;;;;5051787;28;20668;-61
2022/03/22 03:07:33;;;;;;;39.33;23.58;;;;;;;;;;5052259;28;20219;-61
2022/03/22 03:09:59;;;;;;;30.60;21.20;;;;;;;;;;5051192;28;20245;-61
2022/03/22 03:12:24;;;;;;;30.48;21.45;;;;;;;;;;5051800;28;20650;-61
2022/03/22 03:14:49;;;;;;;32.72;22.63;;;;;;;;;;5052062;28;20211;-61
2022/03/22 03:17:15;;;;;;;32.97;23.52;;;;;;;;;;5050997;28;20237;-61
2022/03/22 03:19:40;;;;;;;34.67;22.15;;;;;;;;;;5052001;28;20575;-61
2022/03/22 03:22:06;;;;;;;30.27;21.70;;;;;;;;;;5050820;28;20235;-61
2022/03/22 03:24:31;;;;;;;35.30;24.17;;;;;;;;;;5052161;28;20211;-61
2022/03/22 03:26:57;;;;;;;30.92;21.80;;;;;;;;;;5052070;28;20638;-61
2022/03/22 03:29:22;;;;;;;29.02;21.65;;;;;;;;;;5049505;28;20678;-61
2022/03/22 03:31:48;;;;;;;31.17;22.10;;;;;;;;;;5051833;28;20219;-61
2022/03/22 03:34:14;;;;;;;28.15;21.05;;;;;;;;;;5051455;28;20214;-61
2022/03/22 03:36:39;;;;;;;33.30;22.73;;;;;;;;;;5051704;28;20222;-61
2022/03/22 03:39:04;;;;;;;32.17;22.67;;;;;;;;;;5040749;28;20258;-61
2022/03/22 03:47:04;;;;;;;33.58;21.88;;;;;;;;;;5055590;28;20653;-61
2022/03/22 03:49:30;;;;;;;33.55;21.77;;;;;;;;;;5055459;28;20298;-61
2022/03/22 03:51:55;;;;;;;32.33;21.38;;;;;;;;;;5054990;28;20306;-61
2022/03/22 03:54:20;;;;;;;33.38;21.63;;;;;;;;;;5064030;28;20234;-61
2022/03/22 03:56:46;;;;;;;30.13;21.50;;;;;;;;;;5075513;28;20210;-61
2022/03/22 03:59:11;;;;;;;31.17;21.60;;;;;;;;;;5067536;28;20257;-61
2022/03/22 04:01:36;;;;;;;31.95;21.80;;;;;;;;;;5055229;28;20206;-61
2022/03/22 04:04:03;;;;;;;32.30;22.13;;;;;;;;;;5055158;28;20222;-61
2022/03/22 04:06:29;;;;;;;31.50;21.75;;;;;;;;;;5054623;28;20237;-61
2022/03/22 04:08:55;;;;;;;30.67;21.73;;;;;;;;;;5055249;28;20233;-61
2022/03/22 04:11:20;;;;;;;31.55;22.67;;;;;;;;;;5053982;28;20289;-61
2022/03/22 04:13:46;;;;;;;31.08;21.65;;;;;;;;;;5055128;28;20239;-61
2022/03/22 04:16:11;;;;;;;32.00;21.92;;;;;;;;;;5054604;28;20586;-61
2022/03/22 04:18:36;;;;;;;31.30;22.00;;;;;;;;;;5054292;28;20609;-61
2022/03/22 04:21:01;;;;;;;32.03;22.02;;;;;;;;;;5054886;28;20222;-61
2022/03/22 04:23:27;;;;;;;32.72;22.95;;;;;;;;;;5055114;28;20269;-61
2022/03/22 04:25:52;;;;;;;29.98;21.75;;;;;;;;;;5054045;28;20207;-61
2022/03/22 04:33:45;;;;;;;32.25;21.60;;;;;;;;;;5054077;28;20222;-61
2022/03/22 04:36:12;;;;;;;31.20;21.42;;;;;;;;;;5054382;28;20211;-61
2022/03/22 04:38:38;;;;;;;30.85;21.95;;;;;;;;;;5064183;28;20198;-61
2022/03/22 04:41:03;;;;;;;30.02;21.75;;;;;;;;;;5073382;28;20202;-61
2022/03/22 04:43:29;;;;;;;33.00;21.65;;;;;;;;;;5074388;28;20656;-61
2022/03/22 04:45:54;;;;;;;31.63;22.08;;;;;;;;;;5059889;28;20226;-61
2022/03/22 04:48:19;;;;;;;33.42;22.77;;;;;;;;;;5052365;28;20272;-61
2022/03/22 04:50:45;;;;;;;35.17;21.95;;;;;;;;;;5054419;28;20294;-61
2022/03/22 04:58:38;;;;;;;36.08;23.10;;;;;;;;;;5055772;28;20273;-61
2022/03/22 05:01:04;;;;;;;32.58;22.23;;;;;;;;;;5073151;28;20222;-61
2022/03/22 05:03:29;;;;;;;29.17;20.70;;;;;;;;;;5074253;28;20697;-61
2022/03/22 05:08:38;;;;;;;32.63;20.83;;;;;;;;;;5073043;28;20217;-61
2022/03/22 05:11:03;;;;;;;31.67;21.27;;;;;;;;;;5073564;28;20210;-61
2022/03/22 05:13:29;;;;;;;33.33;23.02;;;;;;;;;;5074253;28;20222;-61
2022/03/22 05:15:54;;;;;;;37.28;22.52;;;;;;;;;;5073366;28;20689;-61
2022/03/22 05:18:20;;;;;;;32.03;22.00;;;;;;;;;;5073324;28;20221;-60
2022/03/22 05:20:46;;;;;;;30.92;21.88;;;;;;;;;;5052955;28;20733;-60
2022/03/22 05:23:11;;;;;;;34.72;22.77;;;;;;;;;;5060857;28;20222;-60
2022/03/22 05:25:36;;;;;;;34.30;22.00;;;;;;;;;;5043899;28;20207;-60
2022/03/22 05:28:03;;;;;;;31.48;22.38;;;;;;;;;;5047720;28;20218;-60
2022/03/22 05:30:29;;;;;;;31.27;21.30;;;;;;;;;;5062789;28;20322;-60
2022/03/22 05:32:54;;;;;;;34.17;21.60;;;;;;;;;;5063322;28;20281;-60
2022/03/22 05:35:19;;;;;;;33.65;22.83;;;;;;;;;;5054734;28;21733;-60
2022/03/22 05:37:45;;;;;;;32.97;22.17;;;;;;;;;;5040027;28;20208;-60
2022/03/22 05:40:10;;;;;;;31.88;21.58;;;;;;;;;;5035804;28;20331;-60
2022/03/22 05:42:39;;;;;;;31.58;21.80;;;;;;;;;;5061097;28;20662;-60
2022/03/22 05:45:06;;;;;;;33.90;23.27;;;;;;;;;;5055321;28;20215;-60
2022/03/22 05:47:31;;;;;;;32.33;22.17;;;;;;;;;;5043545;28;20826;-60
2022/03/22 05:49:56;;;;;;;30.05;21.58;;;;;;;;;;5042718;28;20329;-60
2022/03/22 05:52:21;;;;;;;31.73;21.85;;;;;;;;;;5043022;28;20219;-60
2022/03/22 05:54:47;;;;;;;34.78;22.40;;;;;;;;;;5057549;28;20749;-60
2022/03/22 05:57:12;;;;;;;33.47;22.77;;;;;;;;;;5056398;28;20751;-60
2022/03/22 05:59:37;;;;;;;30.70;22.15;;;;;;;;;;5063450;28;20206;-62
2022/03/22 06:02:04;;;;;;;35.50;23.35;;;;;;;;;;5071441;28;20624;-62
2022/03/22 06:04:29;;;;;;;30.85;21.70;;;;;;;;;;5072122;28;20210;-62
2022/03/22 06:06:54;;;;;;;41.17;29.93;;;;;;;;;;5072390;28;20433;-61
2022/03/22 06:09:19;;;;;;;40.17;28.55;;;;;;;;;;5072520;28;20297;-62
2022/03/22 06:11:45;;;;;;;34.58;24.85;;;;;;;;;;5072171;28;20576;-61
2022/03/22 06:14:10;;;;;;;34.17;25.97;;;;;;;;;;5071242;28;20452;-63
2022/03/22 06:16:35;;;;;;;34.35;24.90;;;;;;;;;;5069412;28;20238;-63
2022/03/22 06:19:01;;;;;;;33.85;22.58;;;;;;;;;;5060408;28;20206;-62
2022/03/22 06:21:26;;;;;;;31.73;22.15;;;;;;;;;;5061900;28;20553;-63
2022/03/22 06:23:52;;;;;;;34.53;23.50;;;;;;;;;;5062287;28;20210;-63
2022/03/22 06:26:17;;;;;;;34.50;23.25;;;;;;;;;;5061714;28;20250;-63
2022/03/22 06:28:42;;;;;;;32.63;22.63;;;;;;;;;;5061135;28;20245;-63
2022/03/22 06:31:08;;;;;;;34.58;23.13;;;;;;;;;;5053967;28;20207;-61
2022/03/22 06:33:34;;;;;;;32.97;22.02;;;;;;;;;;5051846;28;20268;-62
2022/03/22 06:35:59;;;;;;;34.40;21.98;;;;;;;;;;5052339;28;20207;-61
2022/03/22 06:38:24;;;;;;;35.00;23.60;;;;;;;;;;5059907;28;20220;-61
2022/03/22 06:40:50;;;;;;;33.15;22.65;;;;;;;;;;5071816;28;20691;-61
2022/03/22 06:43:16;;;;;;;31.42;21.58;;;;;;;;;;5069921;28;20207;-61
2022/03/22 06:45:41;;;;;;;32.80;20.67;;;;;;;;;;5057500;28;20243;-61
2022/03/22 06:48:06;;;;;;;31.67;22.05;;;;;;;;;;5049198;28;20738;-61
2022/03/22 06:50:32;;;;;;;33.05;22.15;;;;;;;;;;5050065;28;20228;-61
2022/03/22 06:52:57;;;;;;;31.45;21.45;;;;;;;;;;5049649;28;20305;-61
2022/03/22 06:55:22;;;;;;;30.67;21.73;;;;;;;;;;5049626;28;20280;-61
2022/03/22 06:57:50;;;;;;;28.00;21.02;;;;;;;;;;5050121;28;20244;-61
2022/03/22 07:00:16;;;;;;;28.67;19.60;;;;;;;;;;5054949;28;20629;-61
2022/03/22 07:02:41;;;;;;;29.45;19.17;;;;;;;;;;5050193;28;20211;-62
2022/03/22 07:05:08;;;;;;;30.25;19.42;;;;;;;;;;5033580;28;20210;-61
2022/03/22 07:07:33;;;;;;;28.83;19.10;;;;;;;;;;5055612;28;20222;-61
2022/03/22 07:09:58;;;;;;;28.52;20.00;;;;;;;;;;5052290;28;20584;-61
2022/03/22 07:12:24;;;;;;;27.77;19.40;;;;;;;;;;5073417;28;20297;-61
2022/03/22 07:14:49;;;;;;;30.85;20.00;;;;;;;;;;5076155;28;20283;-62
2022/03/22 07:17:14;;;;;;;31.55;20.73;;;;;;;;;;5076141;28;20240;-62
2022/03/22 07:19:40;;;;;;;28.65;18.67;;;;;;;;;;5076708;28;20213;-61
2022/03/22 07:22:05;;;;;;;28.52;19.73;;;;;;;;;;5075701;28;20214;-61
2022/03/22 07:24:30;;;;;;;30.25;20.30;;;;;;;;;;5076997;28;20569;-62
2022/03/22 07:26:56;;;;;;;27.02;19.08;;;;;;;;;;5076669;28;20355;-62
2022/03/22 07:29:21;;;;;;;26.75;19.25;;;;;;;;;;5075373;28;20210;-61
2022/03/22 07:31:46;;;;;;;25.95;18.55;;;;;;;;;;5076647;28;20744;-61
2022/03/22 07:34:15;;;;;;;26.50;19.70;;;;;;;;;;5076298;28;20708;-61
2022/03/22 07:36:40;;;;;;;29.23;19.48;;;;;;;;;;5075778;28;20206;-61
2022/03/22 07:39:06;;;;;;;25.08;18.27;;;;;;;;;;5076130;28;20206;-61
2022/03/22 07:41:31;;;;;;;28.25;19.10;;;;;;;;;;5076758;28;20450;-62
2022/03/22 07:43:57;;;;;;;28.80;19.83;;;;;;;;;;5075780;28;20639;-62
2022/03/22 07:46:27;;;;;;;28.45;19.25;;;;;;;;;;5057338;28;20238;-62
2022/03/22 07:48:53;;;;;;;29.40;19.45;;;;;;;;;;5056581;28;20215;-62
2022/03/22 07:54:02;;;;;;;25.90;19.55;;;;;;;;;;5055789;28;20713;-61
2022/03/22 07:56:28;;;;;;;30.25;18.98;;;;;;;;;;5055675;28;20210;-61
2022/03/22 07:58:53;;;;;;;28.27;18.95;;;;;;;;;;5060242;28;20202;-61
2022/03/22 08:01:18;;;;;;;28.50;19.05;;;;;;;;;;5075822;28;20578;-62
2022/03/22 08:03:43;;;;;;;29.17;19.45;;;;;;;;;;5057798;28;20271;-62
2022/03/22 08:06:09;;;;;;;29.90;18.88;;;;;;;;;;5075636;28;20206;-62
2022/03/22 08:08:34;;;;;;;27.08;18.58;;;;;;;;;;5076413;28;20210;-62
2022/03/22 08:11:00;;;;;;;26.73;18.50;;;;;;;;;;5064755;28;20302;-62
2022/03/22 08:13:26;;;;;;;26.52;19.30;;;;;;;;;;5055992;28;20580;-62
2022/03/22 08:15:51;;;;;;;26.33;19.70;;;;;;;;;;5056381;28;20250;-61
2022/03/22 08:18:17;;;;;;;24.50;19.63;;;;;;;;;;5055060;28;20290;-62
2022/03/22 08:20:42;;;;;;;25.65;19.13;;;;;;;;;;5056218;28;20690;-62
2022/03/22 08:23:09;;;;;;;25.52;19.30;;;;;;;;;;5054042;28;20254;-62
2022/03/22 08:25:36;;;;;;;28.52;20.05;;;;;;;;;;5052074;28;20207;-61
2022/03/22 08:28:03;;;;;;;27.58;19.95;;;;;;;;;;5052526;28;20226;-61
2022/03/22 08:30:29;;;;;;;26.48;19.23;;;;;;;;;;5052817;28;20199;-61
2022/03/22 08:32:55;;;;;;;28.00;19.98;;;;;;;;;;5052394;28;20219;-62
2022/03/22 08:35:21;;;;;;;25.83;19.40;;;;;;;;;;5052502;28;20238;-61
2022/03/22 08:37:46;;;;;;;31.00;19.88;;;;;;;;;;5052777;28;20682;-62
2022/03/22 08:40:13;;;;;;;28.77;19.95;;;;;;;;;;5051499;28;20219;-61
2022/03/22 08:42:41;;;;;;;25.25;19.52;;;;;;;;;;5061008;28;20211;-61
2022/03/22 08:45:06;;;;;;;23.73;19.25;;;;;;;;;;5045334;28;20265;-61
2022/03/22 08:47:34;;;;;;;27.92;21.17;;;;;;;;;;5053881;28;20219;-61
2022/03/22 08:49:59;;;;;;;24.77;18.65;;;;;;;;;;5054503;28;20207;-61
2022/03/22 08:52:24;;;;;;;25.92;18.52;;;;;;;;;;5064156;28;21258;-61
2022/03/22 08:54:51;;;;;;;26.08;17.25;;;;;;;;;;5053417;28;20249;-60
2022/03/22 08:57:17;;;;;;;24.40;18.27;;;;;;;;;;5077826;28;20210;-60
2022/03/22 08:59:43;;;;;;;24.33;18.50;;;;;;;;;;5082905;28;20222;-60
2022/03/22 09:02:09;;;;;;;26.27;17.92;;;;;;;;;;5073893;28;20289;-60
2022/03/22 09:07:18;;;;;;;26.10;19.42;;;;;;;;;;5072297;28;20457;-61
2022/03/22 09:09:43;;;;;;;25.35;17.65;;;;;;;;;;5073510;28;20238;-61
2022/03/22 09:12:09;;;;;;;25.05;17.70;;;;;;;;;;5053820;28;20207;-62
2022/03/22 09:14:34;;;;;;;28.42;18.27;;;;;;;;;;5053316;28;20215;-61
2022/03/22 09:17:00;;;;;;;23.20;17.65;;;;;;;;;;5054085;28;20217;-61
2022/03/22 09:19:25;;;;;;;23.17;17.30;;;;;;;;;;5053644;28;20578;-61
2022/03/22 09:21:50;;;;;;;23.98;18.20;;;;;;;;;;5053139;28;20218;-61
2022/03/22 09:24:16;;;;;;;25.27;17.65;;;;;;;;;;5053281;28;20294;-61
2022/03/22 09:26:41;;;;;;;25.38;18.75;;;;;;;;;;5054058;28;20403;-61
2022/03/22 09:29:07;;;;;;;24.08;17.85;;;;;;;;;;5052826;28;20222;-61
2022/03/22 09:31:33;;;;;;;21.80;17.10;;;;;;;;;;5053731;28;20214;-61
2022/03/22 09:33:58;;;;;;;21.75;17.70;;;;;;;;;;5053745;28;20219;-61
2022/03/22 09:36:23;;;;;;;22.90;16.80;;;;;;;;;;5052360;28;20199;-63
2022/03/22 09:38:49;;;;;;;27.70;17.83;;;;;;;;;;5053253;28;20221;-63
2022/03/22 09:41:14;;;;;;;26.02;19.00;;;;;;;;;;5053189;28;20223;-62
2022/03/22 09:43:43;;;;;;;23.30;18.48;;;;;;;;;;5052918;28;20654;-62
2022/03/22 09:46:09;;;;;;;23.02;16.95;;;;;;;;;;5069504;28;20214;-62
2022/03/22 09:48:34;;;;;;;22.55;18.42;;;;;;;;;;5073477;28;20285;-62
2022/03/22 09:53:44;;;;;;;20.92;17.02;;;;;;;;;;5072405;28;20244;-62
2022/03/22 09:56:09;;;;;;;25.73;17.90;;;;;;;;;;5071941;28;20222;-62
2022/03/22 09:58:34;;;;;;;21.63;16.75;;;;;;;;;;5072010;28;20210;-62
2022/03/22 10:01:00;;;;;;;25.45;18.65;;;;;;;;;;5053458;28;20268;-62
2022/03/22 10:03:25;;;;;;;25.15;18.38;;;;;;;;;;5052093;28;20210;-62
2022/03/22 10:05:58;;;;;;;24.95;17.95;;;;;;;;;;5053117;28;20235;-62
2022/03/22 10:08:23;;;;;;;23.58;18.50;;;;;;;;;;5052503;28;20208;-62
2022/03/22 10:10:52;;;;;;;26.73;18.90;;;;;;;;;;5059962;28;20210;-62
2022/03/22 10:13:18;;;;;;;27.08;18.85;;;;;;;;;;5072512;28;20214;-62
2022/03/22 10:15:43;;;;;;;23.50;18.48;;;;;;;;;;5073013;28;20721;-62
2022/03/22 10:18:10;;;;;;;25.65;18.38;;;;;;;;;;5071798;28;20259;-62
2022/03/22 10:20:36;;;;;;;27.75;19.33;;;;;;;;;;5072811;28;20214;-62
2022/03/22 10:23:01;;;;;;;29.25;19.88;;;;;;;;;;5072581;28;20662;-62
2022/03/22 10:25:27;;;;;;;27.73;19.20;;;;;;;;;;5071881;28;20255;-62
2022/03/22 10:27:54;;;;;;;26.60;19.90;;;;;;;;;;5072692;28;20780;-62
2022/03/22 10:30:19;;;;;;;24.95;19.00;;;;;;;;;;5054360;28;20212;-62
2022/03/22 10:32:50;;;;;;;25.88;19.90;;;;;;;;;;5071926;28;20571;-62
2022/03/22 10:35:17;;;;;;;27.10;20.00;;;;;;;;;;5072338;28;20287;-62
2022/03/22 10:37:43;;;;;;;24.60;19.60;;;;;;;;;;5072659;28;20607;-62
2022/03/22 10:40:29;;;;;;;26.75;19.60;;;;;;;;;;5053009;28;20214;-62
2022/03/22 10:42:56;;;;;;;24.00;19.00;;;;;;;;;;5072385;28;20226;-62
2022/03/22 10:45:21;;;;;;;24.73;18.90;;;;;;;;;;5061136;28;20217;-62
2022/03/22 10:47:46;;;;;;;27.58;19.48;;;;;;;;;;5051416;28;20231;-62
2022/03/22 10:50:12;;;;;;;27.50;20.35;;;;;;;;;;5051959;28;20211;-62
2022/03/22 10:52:47;;;;;;;24.55;18.67;;;;;;;;;;5051752;28;20659;-62
2022/03/22 10:55:19;;;;;;;26.50;19.70;;;;;;;;;;5051445;28;20227;-62
2022/03/22 10:57:45;;;;;;;27.13;19.80;;;;;;;;;;5052645;28;20265;-62
2022/03/22 11:00:10;;;;;;;28.33;19.20;;;;;;;;;;5047798;28;20206;-61
2022/03/22 11:02:36;;;;;;;27.27;19.45;;;;;;;;;;5072518;28;20681;-62
2022/03/22 11:05:03;;;;;;;26.30;19.48;;;;;;;;;;5071149;28;20619;-61
2022/03/22 11:07:29;;;;;;;25.65;19.38;;;;;;;;;;5071886;28;20241;-62
2022/03/22 11:09:54;;;;;;;26.52;19.95;;;;;;;;;;5052014;28;20574;-62
2022/03/22 11:12:19;;;;;;;23.88;18.35;;;;;;;;;;5034069;28;20219;-62
2022/03/22 11:14:45;;;;;;;28.77;19.63;;;;;;;;;;5051627;28;20223;-62
2022/03/22 11:17:10;;;;;;;28.45;19.60;;;;;;;;;;5051176;28;20226;-62
2022/03/22 11:19:35;;;;;;;27.50;19.55;;;;;;;;;;5051997;28;20214;-62
2022/03/22 11:22:05;;;;;;;26.50;20.42;;;;;;;;;;5033084;28;20222;-62
2022/03/22 11:24:30;;;;;;;28.13;19.33;;;;;;;;;;5051829;28;20219;-62
2022/03/22 11:26:56;;;;;;;28.42;19.75;;;;;;;;;;5052160;28;20592;-62
2022/03/22 11:29:22;;;;;;;24.02;17.30;;;;;;;;;;5050788;28;20214;-62
2022/03/22 11:34:08;;;;;;;29.90;19.33;;;;;;;;;;5052011;28;20576;-62
2022/03/22 11:34:34;;;;;;;28.50;20.73;;;;;;;;;;5050304;28;20644;-62
2022/03/22 11:36:59;;;;;;;25.08;19.02;;;;;;;;;;5034327;28;20207;-62
2022/03/22 11:42:15;;;;;;;30.77;17.88;;;;;;;;;;5051167;28;20218;-62
2022/03/22 11:42:16;;;;;;;25.58;18.73;;;;;;;;;;5050623;28;20273;-62
2022/03/22 11:44:42;;;;;;;28.67;19.58;;;;;;;;;;5051891;28;20203;-62
2022/03/22 11:47:08;;;;;;;25.70;17.80;;;;;;;;;;5051414;28;20220;-63
2022/03/22 11:49:48;;;;;;;26.52;17.63;;;;;;;;;;5033245;28;20215;-62
2022/03/22 11:52:13;;;;;;;28.55;18.95;;;;;;;;;;5033815;28;20211;-63
2022/03/22 11:54:38;;;;;;;24.40;17.75;;;;;;;;;;5051608;28;20689;-62
2022/03/22 11:57:04;;;;;;;23.58;17.90;;;;;;;;;;5050515;28;20215;-63
2022/03/22 11:59:38;;;;;;;25.88;18.20;;;;;;;;;;5064249;28;20723;-62
2022/03/22 12:02:04;;;;;;;27.98;18.58;;;;;;;;;;5075028;28;20206;-62
2022/03/22 12:04:34;;;;;;;25.48;17.92;;;;;;;;;;5056944;28;20209;-62
2022/03/22 12:06:59;;;;;;;25.42;18.20;;;;;;;;;;5072231;28;20240;-62
2022/03/22 12:09:25;;;;;;;26.15;17.65;;;;;;;;;;5053979;28;20283;-62
2022/03/22 12:11:50;;;;;;;28.55;19.15;;;;;;;;;;5071190;28;20278;-62
2022/03/22 12:14:26;;;;;;;27.40;19.55;;;;;;;;;;5074929;28;20210;-62
2022/03/22 12:16:52;;;;;;;25.95;17.77;;;;;;;;;;5074547;28;20691;-62
2022/03/22 12:19:23;;;;;;;24.52;18.38;;;;;;;;;;5074764;28;20218;-62
2022/03/22 12:21:49;;;;;;;29.70;18.92;;;;;;;;;;5074901;28;20222;-62
2022/03/22 12:24:14;;;;;;;25.38;18.02;;;;;;;;;;5055742;28;20207;-62
2022/03/22 12:26:39;;;;;;;26.70;18.85;;;;;;;;;;5074967;28;20689;-62
2022/03/22 12:29:05;;;;;;;28.52;19.40;;;;;;;;;;5074795;28;20266;-62
2022/03/22 12:31:30;;;;;;;27.70;19.95;;;;;;;;;;5074064;28;20297;-62
2022/03/22 12:33:56;;;;;;;29.20;19.65;;;;;;;;;;5067420;28;20356;-62
2022/03/22 12:36:22;;;;;;;28.65;20.00;;;;;;;;;;5054396;28;20654;-61
2022/03/22 12:38:47;;;;;;;28.05;19.70;;;;;;;;;;5053796;28;20218;-61
2022/03/22 12:41:13;;;;;;;28.90;19.95;;;;;;;;;;5054187;28;20211;-61
2022/03/22 12:43:45;;;;;;;28.77;20.00;;;;;;;;;;5054638;28;20207;-61
2022/03/22 12:46:11;;;;;;;26.83;19.33;;;;;;;;;;5053508;28;20225;-61
2022/03/22 12:48:36;;;;;;;30.17;19.05;;;;;;;;;;5054827;28;20218;-61
2022/03/22 12:51:02;;;;;;;29.38;18.83;;;;;;;;;;5053905;28;20219;-62
2022/03/22 12:53:27;;;;;;;28.65;19.95;;;;;;;;;;5035800;28;20297;-61
2022/03/22 12:55:52;;;;;;;28.35;19.70;;;;;;;;;;5054474;28;20261;-61
2022/03/22 12:58:24;;;;;;;32.00;18.95;;;;;;;;;;5054024;28;20215;-61
2022/03/22 13:00:50;;;;;;;30.88;19.35;;;;;;;;;;5053603;28;20670;-61
2022/03/22 13:03:16;;;;;;;24.45;16.73;;;;;;;;;;5053938;28;20214;-61
2022/03/22 13:05:44;;;;;;;25.77;17.40;;;;;;;;;;5053633;28;20242;-61
2022/03/22 13:08:11;;;;;;;27.65;17.95;;;;;;;;;;5053271;28;20223;-61
2022/03/22 13:13:20;;;;;;;26.98;17.27;;;;;;;;;;5052721;28;20214;-61
2022/03/22 13:15:47;;;;;;;23.90;14.95;;;;;;;;;;5036339;28;20215;-61
2022/03/22 13:18:13;;;;;;;25.00;14.45;;;;;;;;;;5053652;28;20230;-61
2022/03/22 13:20:39;;;;;;;23.42;14.05;;;;;;;;;;5052662;28;20658;-61
2022/03/22 13:23:06;;;;;;;24.42;14.82;;;;;;;;;;5053252;28;20627;-61
2022/03/22 13:25:37;;;;;;;20.50;14.70;;;;;;;;;;5054154;28;20202;-61
2022/03/22 13:28:07;;;;;;;23.25;14.73;;;;;;;;;;5052391;28;20227;-61
2022/03/22 13:30:33;;;;;;;20.33;14.27;;;;;;;;;;5053850;28;20692;-61
2022/03/22 13:33:05;;;;;;;24.38;14.23;;;;;;;;;;5053846;28;20211;-61
2022/03/22 13:35:30;;;;;;;20.23;14.00;;;;;;;;;;5053014;28;20219;-61
2022/03/22 13:37:56;;;;;;;20.85;13.10;;;;;;;;;;5053274;28;20226;-61
2022/03/22 13:40:21;;;;;;;23.05;13.18;;;;;;;;;;5035451;28;20305;-61
2022/03/22 13:42:53;;;;;;;20.73;13.25;;;;;;;;;;5052756;28;20280;-61
2022/03/22 13:45:20;;;;;;;20.42;12.90;;;;;;;;;;5044964;28;20352;-61
2022/03/22 13:47:48;;;;;;;21.83;12.68;;;;;;;;;;5073424;28;20222;-61
2022/03/22 13:50:13;;;;;;;22.67;12.65;;;;;;;;;;5069101;28;20210;-61
2022/03/22 13:52:39;;;;;;;25.00;12.52;;;;;;;;;;5053208;28;20585;-61
2022/03/22 13:55:10;;;;;;;25.30;13.07;;;;;;;;;;5052045;28;20223;-61
2022/03/22 13:57:36;;;;;;;22.73;13.60;;;;;;;;;;5053520;28;20211;-61
2022/03/22 14:00:02;;;;;;;21.75;13.68;;;;;;;;;;5052709;28;20234;-62
2022/03/22 14:02:27;;;;;;;21.13;13.30;;;;;;;;;;5034525;28;20211;-61
2022/03/22 14:04:52;;;;;;;22.85;13.57;;;;;;;;;;5053644;28;20223;-61
2022/03/22 14:07:18;;;;;;;21.33;14.00;;;;;;;;;;5052112;28;20265;-61
2022/03/22 14:09:43;;;;;;;19.50;12.70;;;;;;;;;;5052510;28;20218;-61
2022/03/22 14:12:08;;;;;;;21.40;14.18;;;;;;;;;;5053638;28;20705;-61
2022/03/22 14:14:33;;;;;;;24.15;14.75;;;;;;;;;;5052840;28;20245;-61
2022/03/22 14:16:59;;;;;;;25.73;14.23;;;;;;;;;;5052345;28;20215;-61
2022/03/22 14:19:24;;;;;;;20.98;13.30;;;;;;;;;;5052206;28;20214;-61
2022/03/22 14:21:49;;;;;;;21.63;12.88;;;;;;;;;;5051429;28;20207;-61
2022/03/22 14:24:15;;;;;;;22.23;14.40;;;;;;;;;;5051763;28;20222;-61
2022/03/22 14:26:40;;;;;;;23.33;13.32;;;;;;;;;;5052713;28;20219;-61
2022/03/22 14:29:05;;;;;;;21.95;14.02;;;;;;;;;;5052100;28;20709;-62
2022/03/22 14:31:31;;;;;;;22.15;13.98;;;;;;;;;;5051971;28;20249;-61
2022/03/22 14:33:56;;;;;;;22.10;14.45;;;;;;;;;;5052746;28;20569;-62
2022/03/22 14:36:21;;;;;;;23.75;13.68;;;;;;;;;;5052423;28;20290;-62
2022/03/22 14:38:49;;;;;;;20.13;14.45;;;;;;;;;;5051243;28;20214;-62
2022/03/22 14:41:24;;;;;;;21.05;13.40;;;;;;;;;;5051907;28;20219;-62
2022/03/22 14:43:51;;;;;;;21.58;13.70;;;;;;;;;;5052389;28;20214;-61
2022/03/22 14:46:18;;;;;;;25.67;14.27;;;;;;;;;;5068771;28;20263;-62